createdAt,value
2019-06-08T00:01:23.054Z,37.35
2019-06-08T00:03:56.681Z,36.33
2019-06-08T00:06:30.081Z,36.66
2019-06-08T00:09:06.938Z,36.77
2019-06-08T00:11:38.680Z,37.08
2019-06-08T00:14:09.403Z,36.74
2019-06-08T00:16:41.908Z,36.79
2019-06-08T00:19:15.299Z,37.91
2019-06-08T00:21:47.015Z,37.56
2019-06-08T00:24:18.367Z,38.11
2019-06-08T00:26:48.852Z,37.36
2019-06-08T00:29:20.296Z,37.23
2019-06-08T00:31:52.135Z,38.18
2019-06-08T00:34:25.126Z,37.15
2019-06-08T00:36:56.476Z,37.21
2019-06-08T00:39:26.603Z,37.61
2019-06-08T00:41:56.871Z,37.43
2019-06-08T00:44:27.908Z,37.47
2019-06-08T00:47:02.509Z,35.32
2019-06-08T00:49:37.857Z,36.88
2019-06-08T00:52:09.851Z,35.72
2019-06-08T00:54:43.371Z,35.87
2019-06-08T00:57:14.827Z,35.67
2019-06-08T00:59:46.442Z,35.74
2019-06-08T01:02:16.635Z,35.79
2019-06-08T01:04:50.153Z,35.88
2019-06-08T01:07:20.361Z,35.91
2019-06-08T01:09:51.465Z,34.74
2019-06-08T01:12:22.650Z,35.17
2019-06-08T01:15:03.079Z,35.17
2019-06-08T01:17:33.935Z,34.70
2019-06-08T01:20:07.542Z,34.98
2019-06-08T01:22:47.380Z,34.95
2019-06-08T01:25:20.262Z,34.78
2019-06-08T01:27:53.958Z,34.47
2019-06-08T01:30:28.516Z,34.65
2019-06-08T01:32:59.532Z,34.15
2019-06-08T01:35:32.095Z,34.92
2019-06-08T01:38:03.725Z,34.73
2019-06-08T01:40:36.217Z,34.31
2019-06-08T01:43:11.093Z,34.97
2019-06-08T01:45:41.430Z,34.25
2019-06-08T01:48:20.161Z,33.55
2019-06-08T01:50:46.286Z,34.17
2019-06-08T01:53:16.572Z,34.08
2019-06-08T01:55:46.876Z,34.35
2019-06-08T01:58:18.833Z,34.87
2019-06-08T02:00:50.334Z,34.25
2019-06-08T02:03:21.080Z,35.06
2019-06-08T02:05:53.807Z,34.82
2019-06-08T02:08:30.654Z,34.33
2019-06-08T02:11:03.069Z,34.72
2019-06-08T02:13:35.974Z,35.07
2019-06-08T02:16:11.108Z,35.06
2019-06-08T02:18:50.757Z,35.19
2019-06-08T02:21:18.117Z,34.32
2019-06-08T02:23:48.420Z,35.34
2019-06-08T02:26:22.271Z,34.59
2019-06-08T02:28:53.314Z,34.47
2019-06-08T02:31:34.834Z,35.20
2019-06-08T02:34:05.320Z,35.22
2019-06-08T02:36:38.340Z,35.22
2019-06-08T02:39:09.607Z,35.04
2019-06-08T02:41:42.050Z,34.78
2019-06-08T02:44:14.583Z,36.08
2019-06-08T02:46:46.046Z,35.81
2019-06-08T02:49:17.200Z,36.14
2019-06-08T02:51:52.487Z,36.10
2019-06-08T02:54:23.993Z,35.99
2019-06-08T02:56:56.679Z,35.10
2019-06-08T02:59:31.364Z,35.38
2019-06-08T03:02:04.723Z,35.54
2019-06-08T03:04:38.821Z,36.19
2019-06-08T03:07:11.215Z,36.68
2019-06-08T03:09:44.632Z,35.18
2019-06-08T03:12:19.639Z,34.89
2019-06-08T03:14:53.538Z,35.67
2019-06-08T03:17:35.577Z,35.45
2019-06-08T03:20:07.607Z,35.14
2019-06-08T03:22:41.880Z,34.82
2019-06-08T03:25:11.360Z,33.85
2019-06-08T03:27:43.728Z,33.85
2019-06-08T03:30:18.578Z,35.04
2019-06-08T03:32:55.741Z,34.15
2019-06-08T03:35:24.126Z,34.15
2019-06-08T03:37:55.793Z,34.73
2019-06-08T03:40:26.025Z,34.31
2019-06-08T03:43:00.306Z,34.25
2019-06-08T03:45:34.193Z,34.27
2019-06-08T03:48:04.701Z,35.16
2019-06-08T03:50:35.466Z,35.16
2019-06-08T03:53:12.036Z,35.05
2019-06-08T03:55:45.441Z,34.75
2019-06-08T03:58:15.487Z,34.96
2019-06-08T04:00:47.069Z,34.59
2019-06-08T04:03:22.117Z,34.72
2019-06-08T04:05:55.695Z,34.34
2019-06-08T04:08:27.488Z,35.21
2019-06-08T04:11:02.791Z,34.36
2019-06-08T04:13:34.345Z,34.40
2019-06-08T04:16:06.595Z,34.93
2019-06-08T04:18:38.077Z,35.35
2019-06-08T04:21:11.152Z,35.23
2019-06-08T04:23:45.344Z,35.23
2019-06-08T04:26:18.584Z,35.48
2019-06-08T04:28:55.092Z,35.48
2019-06-08T04:31:27.247Z,35.55
2019-06-08T04:33:59.683Z,36.69
2019-06-08T04:36:29.927Z,36.37
2019-06-08T04:39:07.732Z,35.81
2019-06-08T04:41:40.588Z,35.26
2019-06-08T04:44:12.827Z,35.93
2019-06-08T04:46:54.410Z,35.93
2019-06-08T04:49:26.804Z,35.79
2019-06-08T04:52:02.963Z,35.36
2019-06-08T04:54:40.809Z,36.53
2019-06-08T04:57:16.098Z,36.53
2019-06-08T04:59:52.297Z,35.58
2019-06-08T05:02:26.078Z,36.78
2019-06-08T05:05:02.032Z,35.71
2019-06-08T05:07:39.334Z,34.63
2019-06-08T05:10:14.461Z,34.84
2019-06-08T05:12:51.140Z,35.05
2019-06-08T05:15:26.254Z,35.36
2019-06-08T05:18:00.568Z,35.61
2019-06-08T05:20:38.933Z,34.56
2019-06-08T05:23:07.624Z,35.30
2019-06-08T05:25:39.376Z,34.78
2019-06-08T05:28:12.549Z,34.80
2019-06-08T05:30:45.264Z,35.44
2019-06-08T05:33:19.262Z,35.44
2019-06-08T05:35:52.944Z,34.09
2019-06-08T05:38:23.986Z,34.83
2019-06-08T05:40:55.746Z,35.58
2019-06-08T05:43:27.185Z,34.45
2019-06-08T05:46:00.071Z,35.46
2019-06-08T05:48:31.864Z,34.46
2019-06-08T05:51:09.933Z,34.70
2019-06-08T05:53:43.819Z,34.50
2019-06-08T05:56:14.890Z,34.05
2019-06-08T05:58:46.003Z,34.11
2019-06-08T06:01:17.217Z,34.73
2019-06-08T06:03:48.782Z,34.71
2019-06-08T06:06:21.109Z,35.90
2019-06-08T06:08:51.963Z,35.92
2019-06-08T06:11:22.224Z,35.19
2019-06-08T06:13:52.694Z,35.84
2019-06-08T06:16:25.005Z,35.84
2019-06-08T06:18:59.529Z,34.68
2019-06-08T06:21:31.745Z,35.62
2019-06-08T06:24:07.177Z,35.31
2019-06-08T06:26:41.299Z,35.11
2019-06-08T06:29:15.790Z,33.77
2019-06-08T06:31:51.934Z,34.38
2019-06-08T06:34:25.277Z,34.58
2019-06-08T06:37:01.085Z,33.67
2019-06-08T06:39:33.683Z,34.76
2019-06-08T06:42:07.928Z,35.85
2019-06-08T06:44:38.738Z,34.93
2019-06-08T06:47:13.838Z,34.93
2019-06-08T06:49:44.597Z,34.57
2019-06-08T06:52:17.768Z,34.77
2019-06-08T06:54:53.157Z,34.52
2019-06-08T06:57:23.942Z,34.98
2019-06-08T06:59:56.063Z,34.73
2019-06-08T07:02:32.695Z,34.67
2019-06-08T07:05:07.438Z,34.54
2019-06-08T07:08:01.398Z,34.54
2019-06-08T07:10:38.225Z,33.39
2019-06-08T07:13:12.705Z,33.33
2019-06-08T07:16:17.203Z,33.60
2019-06-08T07:18:36.089Z,33.91
2019-06-08T07:21:11.963Z,34.51
2019-06-08T07:23:46.304Z,34.35
2019-06-08T07:26:17.692Z,33.92
2019-06-08T07:28:52.430Z,33.82
2019-06-08T07:31:23.204Z,33.49
2019-06-08T07:33:57.452Z,33.54
2019-06-08T07:36:28.029Z,33.81
2019-06-08T07:38:59.651Z,33.69
2019-06-08T07:41:32.716Z,33.81
2019-06-08T07:44:03.741Z,32.93
2019-06-08T07:46:36.464Z,32.93
2019-06-08T07:49:06.911Z,33.41
2019-06-08T07:51:37.925Z,32.61
2019-06-08T07:54:09.351Z,33.24
2019-06-08T07:56:41.189Z,32.78
2019-06-08T07:59:12.786Z,32.20
2019-06-08T08:01:51.905Z,31.10
2019-06-08T08:04:22.690Z,31.32
2019-06-08T08:07:08.772Z,32.15
2019-06-08T08:09:59.207Z,32.61
2019-06-08T08:12:34.215Z,33.42
2019-06-08T08:15:06.784Z,32.48
2019-06-08T08:17:37.817Z,32.84
2019-06-08T08:20:10.570Z,32.69
2019-06-08T08:22:42.608Z,31.67
2019-06-08T08:25:12.989Z,31.61
2019-06-08T08:27:52.387Z,31.40
2019-06-08T08:30:23.647Z,31.02
2019-06-08T08:32:57.105Z,31.68
2019-06-08T08:35:28.023Z,31.69
2019-06-08T08:38:03.022Z,32.43
2019-06-08T08:40:31.709Z,31.89
2019-06-08T08:43:03.883Z,32.15
2019-06-08T08:45:37.306Z,31.10
2019-06-08T08:48:24.444Z,31.96
2019-06-08T08:50:48.340Z,32.37
2019-06-08T08:53:21.925Z,32.42
2019-06-08T08:55:52.386Z,32.92
2019-06-08T08:58:24.102Z,33.63
2019-06-08T09:00:57.560Z,32.86
2019-06-08T09:03:33.457Z,32.79
2019-06-08T09:06:03.942Z,33.50
2019-06-08T09:08:37.577Z,34.82
2019-06-08T09:11:11.157Z,35.46
2019-06-08T09:13:45.331Z,35.54
2019-06-08T09:16:18.443Z,35.44
2019-06-08T09:18:53.924Z,35.07
2019-06-08T09:21:27.951Z,34.66
2019-06-08T09:24:01.979Z,34.26
2019-06-08T09:26:38.264Z,33.91
2019-06-08T09:29:13.140Z,34.27
2019-06-08T09:31:45.407Z,33.31
2019-06-08T09:34:19.283Z,33.45
2019-06-08T09:36:49.953Z,32.51
2019-06-08T09:39:24.052Z,31.50
2019-06-08T09:42:00.455Z,31.22
2019-06-08T09:44:34.812Z,31.51
2019-06-08T09:47:12.385Z,31.60
2019-06-08T09:49:48.140Z,32.01
2019-06-08T09:52:21.655Z,31.40
2019-06-08T09:54:56.939Z,31.13
2019-06-08T09:57:28.724Z,31.36
2019-06-08T10:00:04.353Z,31.03
2019-06-08T10:02:33.602Z,31.25
2019-06-08T10:05:06.332Z,31.59
2019-06-08T10:07:39.236Z,31.12
2019-06-08T10:10:10.357Z,32.09
2019-06-08T10:12:44.522Z,33.19
2019-06-08T10:15:18.007Z,32.94
2019-06-08T10:17:52.189Z,33.70
2019-06-08T10:20:28.810Z,32.96
2019-06-08T10:23:01.160Z,31.57
2019-06-08T10:25:34.005Z,31.72
2019-06-08T10:28:10.122Z,30.52
2019-06-08T10:30:40.194Z,30.57
2019-06-08T10:33:10.512Z,30.74
2019-06-08T10:35:41.385Z,30.96
2019-06-08T10:38:12.183Z,30.40
2019-06-08T10:41:10.801Z,30.87
2019-06-08T10:43:38.523Z,30.81
2019-06-08T10:46:16.683Z,30.73
2019-06-08T10:48:42.203Z,30.46
2019-06-08T10:51:14.187Z,29.90
2019-06-08T10:53:52.094Z,31.23
2019-06-08T10:56:25.263Z,30.60
2019-06-08T10:58:58.054Z,31.08
2019-06-08T11:01:30.708Z,30.80
2019-06-08T11:04:01.952Z,30.06
2019-06-08T11:06:39.895Z,30.76
2019-06-08T11:09:13.205Z,30.83
2019-06-08T11:11:40.511Z,29.40
2019-06-08T11:14:13.358Z,29.91
2019-06-08T11:16:47.597Z,31.43
2019-06-08T11:19:19.150Z,30.75
2019-06-08T11:21:49.841Z,31.63
2019-06-08T11:24:24.495Z,29.72
2019-06-08T11:26:54.470Z,30.12
2019-06-08T11:29:30.778Z,30.64
2019-06-08T11:32:06.547Z,30.25
2019-06-08T11:34:40.791Z,30.71
2019-06-08T11:37:17.881Z,30.37
2019-06-08T11:39:49.175Z,30.15
2019-06-08T11:42:19.347Z,28.79
2019-06-08T11:44:58.721Z,29.09
2019-06-08T11:47:33.652Z,28.93
2019-06-08T11:50:07.285Z,28.80
2019-06-08T11:52:40.509Z,30.66
2019-06-08T11:55:13.171Z,29.56
2019-06-08T11:57:48.846Z,28.82
2019-06-08T12:00:44.207Z,27.71
2019-06-08T12:03:16.061Z,27.80
2019-06-08T12:05:47.839Z,29.29
2019-06-08T12:08:20.898Z,30.43
2019-06-08T12:10:51.377Z,30.03
2019-06-08T12:13:22.363Z,29.67
2019-06-08T12:16:22.053Z,29.18
2019-06-08T12:18:53.000Z,29.59
2019-06-08T12:21:23.259Z,29.76
2019-06-08T12:23:53.857Z,30.29
2019-06-08T12:26:26.106Z,29.66
2019-06-08T12:29:01.206Z,28.46
2019-06-08T12:31:30.181Z,28.21
2019-06-08T12:34:00.663Z,28.62
2019-06-08T12:36:33.838Z,28.89
2019-06-08T12:39:10.069Z,30.04
2019-06-08T12:41:41.174Z,28.73
2019-06-08T12:44:14.682Z,28.52
2019-06-08T12:46:48.351Z,29.27
2019-06-08T12:49:18.798Z,26.95
2019-06-08T12:51:51.704Z,26.73
2019-06-08T12:54:23.511Z,26.74
2019-06-08T12:56:57.971Z,27.24
2019-06-08T12:59:34.485Z,27.09
2019-06-08T13:02:10.605Z,26.08
2019-06-08T13:04:40.486Z,25.95
2019-06-08T13:07:14.798Z,26.74
2019-06-08T13:09:48.171Z,25.49
2019-06-08T13:12:20.371Z,26.38
2019-06-08T13:14:52.165Z,26.25
2019-06-08T13:17:22.805Z,26.45
2019-06-08T13:19:53.421Z,26.32
2019-06-08T13:22:29.053Z,26.18
2019-06-08T13:25:15.099Z,26.39
2019-06-08T13:27:32.709Z,26.27
2019-06-08T13:30:07.650Z,26.18
2019-06-08T13:32:40.747Z,25.96
2019-06-08T13:35:12.199Z,26.58
2019-06-08T13:37:42.603Z,25.92
2019-06-08T13:40:15.304Z,25.34
2019-06-08T13:42:45.462Z,26.08
2019-06-08T13:45:18.826Z,27.61
2019-06-08T13:47:50.497Z,27.72
2019-06-08T13:50:22.627Z,28.34
2019-06-08T13:52:55.143Z,27.24
2019-06-08T13:55:42.588Z,28.21
2019-06-08T13:57:58.122Z,28.33
2019-06-08T14:00:38.339Z,28.28
2019-06-08T14:03:08.980Z,26.94
2019-06-08T14:05:39.310Z,26.58
2019-06-08T14:08:10.935Z,24.99
2019-06-08T14:10:44.714Z,25.85
2019-06-08T14:13:15.220Z,25.67
2019-06-08T14:15:45.467Z,25.62
2019-06-08T14:18:22.616Z,26.80
2019-06-08T14:20:49.070Z,25.93
2019-06-08T14:23:22.794Z,27.50
2019-06-08T14:25:56.699Z,27.52
2019-06-08T14:28:26.078Z,27.01
2019-06-08T14:30:59.358Z,26.85
2019-06-08T14:33:34.638Z,25.22
2019-06-08T14:36:07.988Z,25.75
2019-06-08T14:38:41.696Z,26.48
2019-06-08T14:41:10.987Z,26.72
2019-06-08T14:43:41.316Z,27.37
2019-06-08T14:46:11.541Z,28.13
2019-06-08T14:48:45.209Z,29.11
2019-06-08T14:51:16.694Z,28.50
2019-06-08T14:53:48.635Z,26.80
2019-06-08T14:56:20.144Z,26.30
2019-06-08T14:58:52.588Z,27.07
2019-06-08T15:01:26.339Z,24.65
2019-06-08T15:03:58.656Z,23.50
2019-06-08T15:06:33.961Z,21.48
2019-06-08T15:09:00.877Z,20.97
2019-06-08T15:11:35.257Z,22.18
2019-06-08T15:14:08.517Z,21.13
2019-06-08T15:16:38.588Z,21.92
2019-06-08T15:19:12.098Z,22.45
2019-06-08T15:21:43.587Z,23.88
2019-06-08T15:24:18.575Z,23.84
2019-06-08T15:26:50.587Z,23.57
2019-06-08T15:29:24.952Z,22.92
2019-06-08T15:31:58.490Z,24.69
2019-06-08T15:34:32.936Z,25.03
2019-06-08T15:37:05.287Z,24.69
2019-06-08T15:39:35.511Z,25.87
2019-06-08T15:42:10.267Z,25.93
2019-06-08T15:44:42.138Z,25.46
2019-06-08T15:47:14.680Z,26.19
2019-06-08T15:49:50.222Z,25.62
2019-06-08T15:52:22.387Z,27.25
2019-06-08T15:54:52.622Z,27.26
2019-06-08T15:57:24.619Z,27.70
2019-06-08T15:59:54.929Z,27.92
2019-06-08T16:02:29.423Z,27.43
2019-06-08T16:05:02.408Z,27.36
2019-06-08T16:07:35.611Z,27.86
2019-06-08T16:10:08.202Z,27.67
2019-06-08T16:12:38.855Z,28.11
2019-06-08T16:15:14.807Z,28.48
2019-06-08T16:17:48.005Z,28.67
2019-06-08T16:20:21.296Z,27.68
2019-06-08T16:22:52.069Z,28.49
2019-06-08T16:25:22.636Z,29.45
2019-06-08T16:27:55.645Z,30.12
2019-06-08T16:30:28.891Z,29.64
2019-06-08T16:33:00.931Z,29.18
2019-06-08T16:35:31.535Z,29.40
2019-06-08T16:38:04.089Z,29.58
2019-06-08T16:40:34.420Z,29.68
2019-06-08T16:43:06.625Z,28.58
2019-06-08T16:45:39.434Z,28.87
2019-06-08T16:48:11.022Z,29.18
2019-06-08T16:50:41.965Z,29.51
2019-06-08T16:53:12.894Z,29.53
2019-06-08T16:55:45.434Z,30.73
2019-06-08T16:58:16.020Z,30.53
2019-06-08T17:00:49.106Z,31.62
2019-06-08T17:03:21.366Z,30.81
2019-06-08T17:05:53.327Z,30.42
2019-06-08T17:08:23.567Z,30.18
2019-06-08T17:10:54.099Z,31.22
2019-06-08T17:13:26.244Z,31.48
2019-06-08T17:15:58.539Z,30.99
2019-06-08T17:18:40.361Z,30.56
2019-06-08T17:21:12.606Z,30.48
2019-06-08T17:23:43.319Z,32.41
2019-06-08T17:26:14.179Z,37.74
2019-06-08T17:28:44.653Z,42.36
2019-06-08T17:31:17.066Z,42.93
2019-06-08T17:33:48.675Z,41.20
2019-06-08T17:36:20.244Z,41.60
2019-06-08T17:38:50.462Z,41.06
2019-06-08T17:41:21.051Z,41.09
2019-06-08T17:43:53.164Z,41.29
2019-06-08T17:46:24.655Z,41.89
2019-06-08T17:48:58.011Z,41.07
2019-06-08T17:51:30.992Z,41.81
2019-06-08T17:54:04.582Z,42.82
2019-06-08T17:56:37.147Z,40.29
2019-06-08T17:59:07.979Z,41.74
2019-06-08T18:01:39.753Z,40.28
2019-06-08T18:04:14.180Z,41.74
2019-06-08T18:06:47.429Z,40.15
2019-06-08T18:09:18.944Z,41.19
2019-06-08T18:11:50.336Z,39.58
2019-06-08T18:14:23.966Z,39.96
2019-06-08T18:16:54.196Z,40.29
2019-06-08T18:19:29.365Z,39.93
2019-06-08T18:22:05.765Z,39.41
2019-06-08T18:24:39.224Z,37.12
2019-06-08T18:27:12.139Z,37.75
2019-06-08T18:29:44.419Z,38.37
2019-06-08T18:32:19.123Z,39.46
2019-06-08T18:34:50.187Z,39.24
2019-06-08T18:37:20.496Z,39.06
2019-06-08T18:39:52.435Z,39.09
2019-06-08T18:42:28.497Z,40.00
2019-06-08T18:44:59.222Z,40.00
2019-06-08T18:47:31.279Z,38.42
2019-06-08T18:50:03.574Z,38.65
2019-06-08T18:52:35.327Z,39.13
2019-06-08T18:55:08.313Z,39.49
2019-06-08T18:57:41.024Z,38.91
2019-06-08T19:00:12.948Z,39.12
2019-06-08T19:02:49.049Z,39.34
2019-06-08T19:05:21.209Z,38.96
2019-06-08T19:07:53.345Z,40.84
2019-06-08T19:10:34.602Z,39.83
2019-06-08T19:13:07.947Z,40.50
2019-06-08T19:15:43.771Z,40.73
2019-06-08T19:18:11.908Z,41.32
2019-06-08T19:20:44.873Z,41.35
2019-06-08T19:23:14.555Z,41.23
2019-06-08T19:25:49.396Z,40.89
2019-06-08T19:28:35.138Z,39.50
2019-06-08T19:30:52.214Z,38.54
2019-06-08T19:33:23.762Z,39.77
2019-06-08T19:35:59.092Z,39.55
2019-06-08T19:38:54.494Z,38.99
2019-06-08T19:41:21.465Z,39.84
2019-06-08T19:43:54.068Z,39.56
2019-06-08T19:46:24.247Z,38.87
2019-06-08T19:48:55.636Z,39.83
2019-06-08T19:51:27.828Z,39.84
2019-06-08T19:53:58.667Z,39.63
2019-06-08T19:56:29.881Z,39.96
2019-06-08T19:59:04.671Z,39.73
2019-06-08T20:01:32.463Z,40.19
2019-06-08T20:04:03.087Z,39.95
2019-06-08T20:06:37.113Z,40.15
2019-06-08T20:09:09.473Z,39.70
2019-06-08T20:11:44.156Z,40.31
2019-06-08T20:14:12.572Z,40.20
2019-06-08T20:16:44.712Z,40.36
2019-06-08T20:19:17.569Z,40.68
2019-06-08T20:21:51.310Z,40.49
2019-06-08T20:24:20.015Z,39.94
2019-06-08T20:26:53.412Z,40.32
2019-06-08T20:29:24.546Z,40.61
2019-06-08T20:31:57.522Z,40.76
2019-06-08T20:34:27.267Z,40.94
2019-06-08T20:37:01.432Z,41.51
2019-06-08T20:39:31.806Z,40.75
2019-06-08T20:42:02.112Z,40.73
2019-06-08T20:44:32.435Z,40.81
2019-06-08T20:47:02.779Z,40.85
2019-06-08T20:49:33.905Z,40.69
2019-06-08T20:52:04.742Z,40.92
2019-06-08T20:54:37.321Z,40.88
2019-06-08T20:57:09.487Z,41.09
2019-06-08T20:59:40.234Z,41.18
2019-06-08T21:02:10.651Z,40.88
2019-06-08T21:04:40.907Z,41.07
2019-06-08T21:07:11.223Z,40.58
2019-06-08T21:09:42.140Z,40.27
2019-06-08T21:12:12.486Z,40.32
2019-06-08T21:14:42.777Z,40.65
2019-06-08T21:17:14.034Z,40.54
2019-06-08T21:19:46.717Z,41.20
2019-06-08T21:22:18.355Z,41.10
2019-06-08T21:24:59.742Z,41.41
2019-06-08T21:27:27.714Z,41.77
2019-06-08T21:30:06.859Z,40.55
2019-06-08T21:32:30.558Z,41.18
2019-06-08T21:35:00.780Z,40.74
2019-06-08T21:37:32.699Z,41.24
2019-06-08T21:40:04.312Z,40.92
2019-06-08T21:42:36.976Z,41.37
2019-06-08T21:45:09.517Z,41.24
2019-06-08T21:47:39.049Z,41.77
2019-06-08T21:50:09.808Z,41.94
2019-06-08T21:52:39.992Z,41.27
2019-06-08T21:55:10.231Z,40.90
2019-06-08T21:57:40.513Z,41.07
2019-06-08T22:00:34.840Z,40.67
2019-06-08T22:02:47.932Z,40.91
2019-06-08T22:05:18.351Z,40.52
2019-06-08T22:07:50.116Z,40.82
2019-06-08T22:10:20.504Z,41.64
2019-06-08T22:12:52.101Z,41.26
2019-06-08T22:15:22.620Z,41.66
2019-06-08T22:17:53.137Z,41.66
2019-06-08T22:20:23.911Z,41.58
2019-06-08T22:22:55.101Z,41.84
2019-06-08T22:25:27.714Z,42.08
2019-06-08T22:27:58.427Z,42.66
2019-06-08T22:30:39.306Z,42.13
2019-06-08T22:33:03.963Z,41.88
2019-06-08T22:35:37.339Z,41.45
2019-06-08T22:38:08.595Z,41.93
2019-06-08T22:40:38.912Z,41.86
2019-06-08T22:43:09.387Z,42.01
2019-06-08T22:45:40.568Z,41.98
2019-06-08T22:48:10.872Z,41.28
2019-06-08T22:50:41.173Z,41.28
2019-06-08T22:53:11.424Z,41.56
2019-06-08T22:55:44.248Z,43.04
2019-06-08T22:58:20.999Z,42.31
2019-06-08T23:00:56.018Z,42.71
2019-06-08T23:03:42.553Z,42.25
2019-06-08T23:06:14.045Z,41.95
2019-06-08T23:08:44.244Z,41.89
2019-06-08T23:11:14.446Z,41.87
2019-06-08T23:13:47.048Z,41.15
2019-06-08T23:16:18.164Z,41.56
2019-06-08T23:18:49.085Z,41.31
2019-06-08T23:21:20.278Z,41.79
2019-06-08T23:23:50.525Z,41.34
2019-06-08T23:26:20.884Z,41.28
2019-06-08T23:28:53.790Z,41.60
2019-06-08T23:31:25.656Z,41.88
2019-06-08T23:33:57.195Z,41.72
2019-06-08T23:36:47.112Z,41.08
2019-06-08T23:39:05.109Z,41.08
2019-06-08T23:41:37.720Z,42.00
2019-06-08T23:44:08.104Z,41.71
2019-06-08T23:46:38.365Z,42.04
2019-06-08T23:49:09.078Z,42.10
2019-06-08T23:51:40.430Z,41.70
2019-06-08T23:54:12.469Z,41.43
2019-06-08T23:56:42.951Z,41.43
2019-06-08T23:59:13.536Z,41.46
